Time;durP1;ratioP1;P1;durP2;ratioP2;P2;SDS_P1;SDS_P2;PMS_P1;PMS_P2;Temp;Humidity;BMP_temperature;BMP_pressure;BME280_temperature;BME280_humidity;BME280_pressure;Samples;Min_cycle;Max_cycle;Signal;HPM_P1;HPM_P2
2022/12/12 00:00:50;;;;;;;3.35;3.05;;;0.00;99.90;;;;;;5105298;28;20039;-65
2022/12/12 00:03:17;;;;;;;3.65;3.20;;;0.10;99.90;;;;;;5100577;28;20206;-65
2022/12/12 00:05:44;;;;;;;8.40;3.83;;;0.10;99.90;;;;;;5103614;27;20043;-64
2022/12/12 00:08:11;;;;;;;5.00;3.25;;;0.10;99.90;;;;;;5104227;27;20055;-66
2022/12/12 00:10:38;;;;;;;5.38;3.40;;;0.10;99.90;;;;;;5100451;28;20052;-67
2022/12/12 00:13:05;;;;;;;6.05;3.42;;;0.20;99.90;;;;;;5099738;27;20050;-63
2022/12/12 00:15:31;;;;;;;5.28;3.85;;;0.20;99.90;;;;;;5095356;28;22042;-65
2022/12/12 00:17:58;;;;;;;4.03;2.90;;;0.20;99.90;;;;;;5103076;27;20051;-63
2022/12/12 00:20:25;;;;;;;2.75;2.55;;;0.20;99.90;;;;;;5097943;28;20076;-63
2022/12/12 00:22:52;;;;;;;5.55;3.25;;;0.20;99.90;;;;;;5099452;28;20039;-65
2022/12/12 00:25:19;;;;;;;3.70;2.85;;;0.20;99.90;;;;;;5099810;27;20047;-66
2022/12/12 00:27:46;;;;;;;4.15;2.55;;;0.30;99.90;;;;;;5097622;28;20454;-64
2022/12/12 00:30:12;;;;;;;6.00;3.13;;;0.30;99.90;;;;;;5103259;28;20074;-66
2022/12/12 00:32:39;;;;;;;4.22;3.45;;;0.30;99.90;;;;;;5105213;27;20050;-65
2022/12/12 00:35:06;;;;;;;4.28;3.22;;;0.30;99.90;;;;;;5100350;28;20142;-63
2022/12/12 00:37:33;;;;;;;3.75;2.85;;;0.30;99.90;;;;;;5103015;27;20051;-64
2022/12/12 00:40:01;;;;;;;4.40;3.10;;;0.30;99.90;;;;;;5097934;28;20140;-65
2022/12/12 00:42:28;;;;;;;5.20;3.10;;;0.30;99.90;;;;;;5098031;28;20134;-64
2022/12/12 00:44:54;;;;;;;2.90;2.58;;;0.30;99.90;;;;;;5097683;28;20749;-64
2022/12/12 00:47:21;;;;;;;4.00;3.60;;;0.30;99.90;;;;;;5097339;27;20412;-63
2022/12/12 00:49:48;;;;;;;3.92;2.97;;;0.30;99.90;;;;;;5100306;28;20463;-65
2022/12/12 00:52:15;;;;;;;3.17;2.63;;;0.30;99.90;;;;;;5102608;28;20054;-64
2022/12/12 00:54:42;;;;;;;3.53;2.95;;;0.30;99.90;;;;;;5103448;28;20046;-69
2022/12/12 00:57:09;;;;;;;4.40;2.47;;;0.40;99.90;;;;;;5100608;28;20424;-64
2022/12/12 00:59:35;;;;;;;2.97;2.22;;;0.40;99.90;;;;;;5096153;28;20075;-64
2022/12/12 01:02:02;;;;;;;4.68;3.03;;;0.40;99.90;;;;;;5079019;28;20052;-69
2022/12/12 01:04:29;;;;;;;3.47;3.13;;;0.40;99.90;;;;;;5098513;28;20146;-67
2022/12/12 01:06:56;;;;;;;3.42;3.13;;;0.50;99.90;;;;;;5104013;27;20040;-63
2022/12/12 01:09:23;;;;;;;4.30;3.15;;;0.50;99.90;;;;;;5096922;28;20047;-65
2022/12/12 01:11:50;;;;;;;4.05;2.85;;;0.50;99.90;;;;;;5099331;28;20051;-64
2022/12/12 01:14:17;;;;;;;4.40;3.67;;;0.50;99.90;;;;;;5101492;28;20040;-64
2022/12/12 01:16:44;;;;;;;4.38;3.55;;;0.50;99.90;;;;;;5103401;27;20065;-64
2022/12/12 01:19:10;;;;;;;12.82;3.67;;;0.50;99.90;;;;;;5097748;28;20044;-64
2022/12/12 01:21:37;;;;;;;5.28;3.72;;;0.50;99.90;;;;;;5100318;28;20043;-65
2022/12/12 01:24:05;;;;;;;4.15;3.70;;;0.50;99.90;;;;;;5103211;28;20096;-65
2022/12/12 01:26:32;;;;;;;4.85;4.03;;;0.50;99.90;;;;;;5052870;28;20393;-68
2022/12/12 01:28:58;;;;;;;4.63;3.75;;;0.60;99.90;;;;;;5094575;28;20078;-64
2022/12/12 01:31:25;;;;;;;5.80;3.60;;;0.60;99.90;;;;;;5097083;28;20922;-66
2022/12/12 01:33:52;;;;;;;5.07;4.07;;;0.60;99.90;;;;;;5100396;28;20105;-64
2022/12/12 01:36:21;;;;;;;5.82;3.45;;;0.70;99.90;;;;;;5098043;28;20044;-65
2022/12/12 01:38:50;;;;;;;3.90;3.50;;;0.70;99.90;;;;;;5084381;28;20055;-64
2022/12/12 01:41:18;;;;;;;4.60;3.10;;;0.70;99.90;;;;;;5099264;28;20036;-63
2022/12/12 01:43:45;;;;;;;6.10;4.25;;;0.80;99.90;;;;;;5102031;28;20497;-64
2022/12/12 01:46:21;;;;;;;5.55;4.18;;;0.80;99.90;;;;;;5102999;28;20500;-63
2022/12/12 01:48:53;;;;;;;6.00;3.97;;;0.80;99.90;;;;;;5098611;28;20044;-66
2022/12/12 01:51:23;;;;;;;5.65;3.22;;;0.90;99.90;;;;;;5095798;28;20058;-63
2022/12/12 01:54:03;;;;;;;4.32;3.53;;;0.80;99.90;;;;;;5101258;28;20055;-64
2022/12/12 01:56:31;;;;;;;3.85;2.80;;;0.80;99.90;;;;;;5098071;28;20588;-64
2022/12/12 01:59:01;;;;;;;6.25;2.78;;;0.80;99.90;;;;;;5104053;28;20047;-66
2022/12/12 02:01:28;;;;;;;4.90;3.20;;;0.70;99.90;;;;;;5098515;28;20116;-63
2022/12/12 02:03:55;;;;;;;3.30;3.00;;;0.70;99.90;;;;;;5098730;28;20051;-69
2022/12/12 02:06:26;;;;;;;2.53;2.28;;;0.60;99.90;;;;;;5100947;28;20048;-63
2022/12/12 02:08:56;;;;;;;7.63;4.65;;;0.60;99.90;;;;;;5103241;28;20051;-64
2022/12/12 02:11:26;;;;;;;3.42;3.13;;;0.60;99.90;;;;;;5098708;28;20059;-63
2022/12/12 02:13:53;;;;;;;4.43;2.35;;;0.60;99.90;;;;;;5102328;28;20438;-67
2022/12/12 02:16:57;;;;;;;5.78;2.55;;;0.60;99.90;;;;;;5098121;28;20078;-63
2022/12/12 02:19:48;;;;;;;2.75;2.22;;;0.60;99.90;;;;;;5066959;28;20676;-63
2022/12/12 02:22:36;;;;;;;3.97;2.33;;;0.70;99.90;;;;;;5103172;28;20050;-69
2022/12/12 02:25:08;;;;;;;4.65;3.00;;;0.70;99.90;;;;;;5099969;28;20054;-65
2022/12/12 02:28:05;;;;;;;7.05;3.25;;;0.70;99.90;;;;;;5097799;28;20075;-67
2022/12/12 02:30:54;;;;;;;6.07;3.10;;;0.70;99.90;;;;;;5102936;28;20048;-62
2022/12/12 02:33:49;;;;;;;4.50;3.00;;;0.60;99.90;;;;;;5099735;28;20042;-65
2022/12/12 02:36:37;;;;;;;3.78;2.97;;;0.60;99.90;;;;;;5104078;28;20079;-66
2022/12/12 02:39:36;;;;;;;5.22;3.53;;;0.50;99.90;;;;;;5096845;28;20058;-65
2022/12/12 02:42:09;;;;;;;3.58;3.05;;;0.50;99.90;;;;;;5089740;28;20147;-63
2022/12/12 02:44:47;;;;;;;5.88;3.45;;;0.50;99.90;;;;;;5096641;28;20040;-64
2022/12/12 02:47:28;;;;;;;3.22;2.78;;;0.40;99.90;;;;;;5094104;28;20067;-66
2022/12/12 02:50:07;;;;;;;3.33;2.45;;;0.40;99.90;;;;;;5098881;28;20063;-63
2022/12/12 02:52:35;;;;;;;5.07;3.15;;;0.40;99.90;;;;;;5097028;28;20043;-68
2022/12/12 02:55:03;;;;;;;4.40;2.88;;;0.30;99.90;;;;;;5100738;28;20357;-63
2022/12/12 02:57:29;;;;;;;4.35;2.95;;;0.30;99.90;;;;;;5098082;28;20492;-65
2022/12/12 03:00:09;;;;;;;7.97;4.88;;;0.20;99.90;;;;;;5098662;28;20063;-65
2022/12/12 03:09:26;;;;;;;3.97;3.60;;;0.10;99.90;;;;;;5102263;28;20146;-64
2022/12/12 03:11:56;;;;;;;4.60;3.13;;;0.10;99.90;;;;;;5097394;28;20165;-67
2022/12/12 03:14:35;;;;;;;6.20;3.40;;;0.10;99.90;;;;;;5093042;28;20046;-63
2022/12/12 03:17:24;;;;;;;6.07;4.63;;;0.10;99.90;;;;;;5100040;28;20051;-68
2022/12/12 03:20:01;;;;;;;9.50;4.25;;;0.10;99.90;;;;;;5103128;28;20447;-65
2022/12/12 03:22:44;;;;;;;4.35;3.28;;;0.00;99.90;;;;;;5103098;28;20069;-65
2022/12/12 03:25:14;;;;;;;5.47;4.15;;;0.00;99.90;;;;;;5104498;28;20130;-64
2022/12/12 03:28:09;;;;;;;8.88;4.30;;;0.00;99.90;;;;;;5100329;28;20067;-64
2022/12/12 03:30:44;;;;;;;5.10;4.22;;;-0.10;99.90;;;;;;5083668;28;20051;-64
2022/12/12 03:33:11;;;;;;;5.25;3.90;;;0.00;99.90;;;;;;5097459;28;20194;-64
2022/12/12 03:35:54;;;;;;;3.85;3.45;;;0.00;99.90;;;;;;5098260;28;20047;-65
2022/12/12 03:38:30;;;;;;;6.65;3.72;;;0.00;99.90;;;;;;5104189;28;20058;-63
2022/12/12 03:41:01;;;;;;;4.28;3.78;;;0.00;99.90;;;;;;5096652;28;20100;-63
2022/12/12 03:43:34;;;;;;;6.18;4.43;;;0.00;99.90;;;;;;5090336;28;20056;-63
2022/12/12 03:46:22;;;;;;;6.32;3.65;;;0.00;99.90;;;;;;5100193;28;20399;-64
2022/12/12 03:49:05;;;;;;;5.07;3.70;;;-0.10;99.90;;;;;;5095554;28;20052;-66
2022/12/12 03:51:36;;;;;;;6.35;4.13;;;-0.10;99.90;;;;;;5097925;27;20072;-63
2022/12/12 03:54:15;;;;;;;5.60;4.22;;;-0.10;99.90;;;;;;5099380;28;20067;-68
2022/12/12 03:56:44;;;;;;;4.70;4.07;;;-0.20;99.90;;;;;;5103082;28;20042;-64
2022/12/12 03:59:17;;;;;;;7.10;5.18;;;-0.20;99.90;;;;;;5100701;28;20158;-65
2022/12/12 04:02:28;;;;;;;5.18;3.00;;;-0.20;99.90;;;;;;5098247;28;20952;-66
2022/12/12 04:05:09;;;;;;;5.40;4.05;;;-0.20;99.90;;;;;;5102452;28;20059;-64
2022/12/12 04:07:41;;;;;;;5.18;3.60;;;-0.20;99.90;;;;;;5095189;28;20695;-67
2022/12/12 04:13:22;;;;;;;3.92;3.38;;;-0.20;99.90;;;;;;5101623;28;20168;-64
2022/12/12 04:16:05;;;;;;;8.35;4.25;;;-0.30;99.90;;;;;;5100162;28;20054;-65
2022/12/12 04:18:36;;;;;;;6.85;4.22;;;-0.30;99.90;;;;;;5099980;28;20052;-64
2022/12/12 04:24:17;;;;;;;6.40;5.03;;;-0.40;99.90;;;;;;5099146;28;20043;-65
2022/12/12 04:26:47;;;;;;;5.75;4.53;;;-0.40;99.90;;;;;;5098044;28;20446;-63
2022/12/12 04:29:47;;;;;;;5.70;5.07;;;-0.50;99.90;;;;;;5100066;28;20056;-68
2022/12/12 04:32:21;;;;;;;6.78;4.75;;;-0.50;99.90;;;;;;5099301;28;20058;-64
2022/12/12 04:34:50;;;;;;;7.45;4.57;;;-0.50;99.90;;;;;;5093843;28;20055;-64
2022/12/12 04:37:22;;;;;;;8.68;6.38;;;-0.50;99.90;;;;;;5096918;28;20067;-67
2022/12/12 04:39:53;;;;;;;9.57;6.50;;;-0.60;99.90;;;;;;5099752;28;20043;-63
2022/12/12 04:42:23;;;;;;;7.93;5.15;;;-0.60;99.90;;;;;;5082323;27;20103;-63
2022/12/12 04:44:53;;;;;;;10.90;6.03;;;-0.60;99.90;;;;;;5098922;28;20044;-63
2022/12/12 04:47:22;;;;;;;9.85;5.75;;;-0.60;99.90;;;;;;5099281;28;20047;-64
2022/12/12 04:49:51;;;;;;;9.05;5.72;;;-0.60;99.90;;;;;;5098893;28;20143;-63
2022/12/12 04:52:21;;;;;;;9.23;5.68;;;-0.60;99.90;;;;;;5105013;27;20042;-63
2022/12/12 04:55:17;;;;;;;8.32;6.00;;;-0.60;99.90;;;;;;5098730;28;20047;-63
2022/12/12 04:57:48;;;;;;;8.70;4.97;;;-0.60;99.90;;;;;;5095922;28;20048;-63
2022/12/12 05:00:15;;;;;;;11.75;6.30;;;-0.60;99.90;;;;;;5098413;28;20059;-64
2022/12/12 05:02:48;;;;;;;6.55;4.35;;;-0.50;99.90;;;;;;5100131;28;20039;-67
2022/12/12 05:05:31;;;;;;;8.32;4.78;;;-0.50;99.90;;;;;;5099282;28;20514;-65
2022/12/12 05:08:11;;;;;;;6.20;5.13;;;-0.50;99.90;;;;;;5098311;28;20148;-64
2022/12/12 05:10:45;;;;;;;;;;;-0.40;99.90;;;;;;5098603;28;20500;-65
2022/12/12 05:13:17;;;;;;;8.38;4.07;;;-0.40;99.90;;;;;;5093734;28;20819;-68
2022/12/12 05:15:47;;;;;;;6.38;4.00;;;-0.40;99.90;;;;;;5096554;28;20477;-65
2022/12/12 05:18:14;;;;;;;6.67;3.70;;;-0.40;99.90;;;;;;5098535;28;20122;-67
2022/12/12 05:20:41;;;;;;;5.82;4.07;;;-0.40;99.90;;;;;;5097688;28;20051;-70
2022/12/12 05:23:08;;;;;;;6.38;3.85;;;-0.40;99.90;;;;;;5099354;28;20374;-67
2022/12/12 05:25:34;;;;;;;5.35;4.10;;;-0.40;99.90;;;;;;5095590;28;20045;-65
2022/12/12 05:28:01;;;;;;;6.43;4.10;;;-0.40;99.90;;;;;;5087995;28;20046;-69
2022/12/12 05:30:28;;;;;;;5.63;4.45;;;-0.40;99.90;;;;;;5095022;28;20079;-64
2022/12/12 05:32:55;;;;;;;11.38;4.05;;;-0.50;99.90;;;;;;5101767;28;20151;-67
2022/12/12 05:35:22;;;;;;;8.48;3.75;;;-0.50;99.90;;;;;;5097515;28;20054;-64
2022/12/12 05:37:49;;;;;;;4.80;4.05;;;-0.50;99.90;;;;;;5100752;28;20062;-65
2022/12/12 05:40:19;;;;;;;7.35;5.32;;;-0.40;99.90;;;;;;5100979;28;20168;-64
2022/12/12 05:42:46;;;;;;;5.45;3.70;;;-0.30;99.90;;;;;;5097665;28;20044;-64
2022/12/12 05:45:14;;;;;;;12.40;3.78;;;-0.30;99.90;;;;;;5094413;28;20046;-67
2022/12/12 05:47:41;;;;;;;6.43;4.18;;;-0.20;99.90;;;;;;5102672;28;20490;-69
2022/12/12 05:50:08;;;;;;;3.78;2.80;;;-0.10;99.90;;;;;;5098407;28;20131;-63
2022/12/12 05:52:35;;;;;;;4.25;3.17;;;-0.10;99.90;;;;;;5100930;28;20062;-63
2022/12/12 05:55:03;;;;;;;9.45;3.95;;;0.00;99.90;;;;;;5101046;28;20086;-69
2022/12/12 05:57:30;;;;;;;6.63;4.85;;;0.10;99.90;;;;;;5093498;28;20047;-65
2022/12/12 05:59:57;;;;;;;7.32;3.67;;;0.20;99.90;;;;;;5097680;28;21761;-66
2022/12/12 06:02:24;;;;;;;4.60;3.35;;;0.30;99.90;;;;;;5096488;28;20047;-69
2022/12/12 06:04:50;;;;;;;6.95;3.55;;;0.50;99.90;;;;;;5097336;28;20046;-63
2022/12/12 06:07:17;;;;;;;4.88;3.45;;;0.50;99.90;;;;;;5090946;28;20494;-68
2022/12/12 06:09:44;;;;;;;8.80;3.92;;;0.70;99.90;;;;;;5096151;28;20066;-63
2022/12/12 06:12:11;;;;;;;7.65;5.03;;;0.70;99.90;;;;;;5095571;28;20126;-64
2022/12/12 06:14:38;;;;;;;7.85;5.18;;;0.80;99.90;;;;;;5096619;28;20476;-67
2022/12/12 06:17:05;;;;;;;9.32;4.80;;;0.80;99.90;;;;;;5097838;28;20127;-68
2022/12/12 06:19:32;;;;;;;7.55;3.72;;;0.80;99.90;;;;;;5091672;28;22191;-63
2022/12/12 06:21:59;;;;;;;7.55;4.88;;;0.80;99.90;;;;;;5097953;28;20380;-65
2022/12/12 06:24:26;;;;;;;9.75;4.32;;;0.80;99.90;;;;;;5082300;28;20044;-67
2022/12/12 06:26:53;;;;;;;8.27;4.47;;;0.80;99.90;;;;;;5100611;28;20048;-64
2022/12/12 06:29:20;;;;;;;7.32;3.85;;;0.80;99.90;;;;;;5099441;28;20052;-63
2022/12/12 06:31:47;;;;;;;10.05;4.10;;;0.80;99.90;;;;;;5097003;28;20139;-66
2022/12/12 06:34:14;;;;;;;4.40;3.55;;;0.80;99.90;;;;;;5086317;28;20186;-64
2022/12/12 06:36:41;;;;;;;5.38;3.83;;;0.80;99.90;;;;;;5089668;28;20135;-66
2022/12/12 06:39:08;;;;;;;13.02;3.97;;;0.80;99.90;;;;;;5092579;28;20139;-68
2022/12/12 06:41:36;;;;;;;6.80;3.78;;;0.80;99.90;;;;;;5095562;28;20507;-68
2022/12/12 06:44:03;;;;;;;8.90;4.18;;;0.80;99.90;;;;;;5099610;28;20067;-63
2022/12/12 06:46:30;;;;;;;6.07;4.20;;;0.80;99.90;;;;;;5100131;28;20277;-63
2022/12/12 06:48:57;;;;;;;5.63;4.18;;;0.90;99.90;;;;;;5098138;28;20035;-63
2022/12/12 06:51:27;;;;;;;7.15;4.05;;;0.90;99.90;;;;;;5098262;28;20039;-63
2022/12/12 06:53:55;;;;;;;7.32;3.88;;;0.90;99.90;;;;;;5097575;28;20943;-66
2022/12/12 06:56:24;;;;;;;6.50;4.05;;;0.90;99.90;;;;;;5098644;28;20055;-65
2022/12/12 06:58:52;;;;;;;4.25;3.10;;;0.90;99.90;;;;;;5101753;28;20047;-65
2022/12/12 07:01:21;;;;;;;6.85;3.97;;;0.80;99.90;;;;;;5098354;28;20043;-66
2022/12/12 07:03:49;;;;;;;6.82;4.40;;;0.90;99.90;;;;;;5097873;28;20048;-62
2022/12/12 07:06:17;;;;;;;4.85;3.88;;;0.90;99.90;;;;;;5099621;28;20044;-68
2022/12/12 07:08:45;;;;;;;6.90;3.33;;;0.80;99.90;;;;;;5098452;28;20350;-64
2022/12/12 07:11:15;;;;;;;4.90;3.25;;;0.80;99.90;;;;;;5100797;28;20047;-62
2022/12/12 07:13:42;;;;;;;7.95;3.97;;;0.80;99.90;;;;;;5102139;28;20035;-62
2022/12/12 07:16:09;;;;;;;6.93;4.20;;;0.80;99.90;;;;;;5091169;28;20054;-63
2022/12/12 07:18:37;;;;;;;6.28;3.90;;;0.70;99.90;;;;;;5102164;28;20506;-63
2022/12/12 07:21:10;;;;;;;6.50;4.32;;;0.80;99.90;;;;;;5106409;28;20047;-62
2022/12/12 07:23:36;;;;;;;6.75;3.42;;;0.70;99.90;;;;;;5099924;28;20043;-64
2022/12/12 07:26:05;;;;;;;5.90;3.97;;;0.70;99.90;;;;;;5101307;28;20940;-63
2022/12/12 07:28:32;;;;;;;4.30;3.13;;;0.70;99.90;;;;;;5097496;28;20044;-62
2022/12/12 07:31:04;;;;;;;4.57;2.97;;;0.70;99.90;;;;;;5095664;28;20044;-66
2022/12/12 07:33:30;;;;;;;5.75;3.97;;;0.70;99.90;;;;;;5097365;28;20101;-63
2022/12/12 07:36:10;;;;;;;5.15;3.13;;;0.70;99.90;;;;;;5096979;28;20055;-63
2022/12/12 07:38:38;;;;;;;4.95;3.60;;;0.70;99.90;;;;;;5099827;28;20044;-62
2022/12/12 07:41:08;;;;;;;5.50;3.00;;;0.70;99.90;;;;;;5099780;28;20211;-65
2022/12/12 07:43:36;;;;;;;3.97;2.55;;;0.70;99.90;;;;;;5098459;28;20078;-63
2022/12/12 07:46:12;;;;;;;5.80;3.90;;;0.70;99.90;;;;;;5099656;28;20043;-63
2022/12/12 07:48:39;;;;;;;4.93;3.92;;;0.70;99.90;;;;;;5100693;28;20059;-64
2022/12/12 07:51:05;;;;;;;6.55;3.38;;;0.70;99.90;;;;;;5101460;28;20047;-63
2022/12/12 07:53:32;;;;;;;5.38;3.00;;;0.70;99.90;;;;;;5098006;28;20748;-65
2022/12/12 07:55:59;;;;;;;5.47;3.50;;;0.70;99.90;;;;;;5100425;28;20062;-63
2022/12/12 07:58:26;;;;;;;4.18;3.20;;;0.70;99.90;;;;;;5099427;28;20044;-62
2022/12/12 08:00:53;;;;;;;4.47;3.58;;;0.70;99.90;;;;;;5103481;28;20058;-65
2022/12/12 08:03:19;;;;;;;9.10;3.80;;;0.70;99.90;;;;;;5095590;28;20047;-63
2022/12/12 08:05:46;;;;;;;7.63;3.67;;;0.60;99.90;;;;;;5082780;28;20156;-63
2022/12/12 08:08:13;;;;;;;6.35;4.03;;;0.60;99.90;;;;;;5099113;28;20115;-66
2022/12/12 08:10:41;;;;;;;6.38;3.67;;;0.60;99.90;;;;;;5100471;28;20123;-62
2022/12/12 08:13:07;;;;;;;5.40;3.95;;;0.50;99.90;;;;;;5099741;28;20047;-64
2022/12/12 08:15:34;;;;;;;6.68;3.67;;;0.60;99.90;;;;;;5097708;28;20047;-63
2022/12/12 08:18:01;;;;;;;4.93;3.83;;;0.50;99.90;;;;;;5098085;28;20043;-67
2022/12/12 08:20:28;;;;;;;7.68;3.95;;;0.50;99.90;;;;;;5096976;28;20039;-62
2022/12/12 08:22:55;;;;;;;4.90;3.35;;;0.50;99.90;;;;;;5097253;28;20039;-62
2022/12/12 08:25:22;;;;;;;5.38;3.15;;;0.50;99.90;;;;;;5096472;28;20056;-64
2022/12/12 08:27:49;;;;;;;4.88;3.53;;;0.50;99.90;;;;;;5098325;28;20074;-66
2022/12/12 08:30:15;;;;;;;4.63;3.72;;;0.50;99.90;;;;;;5099489;28;20039;-66
2022/12/12 08:32:42;;;;;;;4.50;3.15;;;0.50;99.90;;;;;;5097544;28;20069;-62
2022/12/12 08:35:09;;;;;;;5.15;3.38;;;0.50;99.90;;;;;;5098356;28;20135;-62
2022/12/12 08:37:36;;;;;;;5.50;3.78;;;0.50;99.90;;;;;;5098639;28;20135;-65
2022/12/12 08:40:04;;;;;;;4.35;3.25;;;0.50;99.90;;;;;;5100986;28;20031;-64
2022/12/12 08:42:31;;;;;;;5.35;4.00;;;0.50;99.90;;;;;;5097967;28;20564;-62
2022/12/12 08:44:58;;;;;;;4.78;4.20;;;0.50;99.90;;;;;;5097783;28;20075;-62
2022/12/12 08:47:24;;;;;;;5.95;3.53;;;0.60;99.90;;;;;;5096386;28;20130;-62
2022/12/12 08:49:51;;;;;;;6.95;4.05;;;0.50;99.90;;;;;;5096071;28;20047;-62
2022/12/12 08:52:18;;;;;;;4.88;3.53;;;0.50;99.90;;;;;;5099259;28;20130;-62
2022/12/12 08:54:45;;;;;;;4.63;3.80;;;0.50;99.90;;;;;;5097261;28;20058;-62
2022/12/12 08:57:12;;;;;;;6.75;3.80;;;0.50;99.90;;;;;;5096768;28;20091;-64
2022/12/12 08:59:39;;;;;;;7.03;4.38;;;0.50;99.90;;;;;;5100816;28;20464;-63
2022/12/12 09:02:07;;;;;;;12.00;3.80;;;0.50;99.90;;;;;;5099061;28;20123;-63
2022/12/12 09:04:34;;;;;;;5.35;3.60;;;0.50;99.90;;;;;;5102709;28;21115;-63
2022/12/12 09:07:01;;;;;;;6.30;3.67;;;0.50;99.90;;;;;;5104546;27;20044;-65
2022/12/12 09:09:34;;;;;;;5.60;3.83;;;0.50;99.90;;;;;;5101645;28;20134;-67
2022/12/12 09:12:01;;;;;;;6.10;3.35;;;0.60;99.90;;;;;;5101761;28;20070;-62
2022/12/12 09:14:27;;;;;;;5.35;3.55;;;0.60;99.90;;;;;;5096622;28;20058;-62
2022/12/12 09:16:55;;;;;;;3.90;3.50;;;0.70;99.90;;;;;;5098305;28;20104;-64
2022/12/12 09:19:21;;;;;;;4.55;3.47;;;0.60;99.90;;;;;;5097516;28;20081;-61
2022/12/12 09:21:48;;;;;;;8.18;4.20;;;0.60;99.90;;;;;;5099538;28;20063;-62
2022/12/12 09:24:15;;;;;;;7.03;4.10;;;0.60;99.90;;;;;;5099982;28;20070;-65
2022/12/12 09:26:42;;;;;;;9.05;4.82;;;0.60;99.90;;;;;;5097443;28;20598;-63
2022/12/12 09:29:10;;;;;;;6.57;3.78;;;0.60;99.90;;;;;;5098142;28;20044;-62
2022/12/12 09:31:37;;;;;;;5.70;3.53;;;0.60;99.90;;;;;;5094205;28;20581;-62
2022/12/12 09:34:04;;;;;;;5.00;3.45;;;0.60;99.90;;;;;;5099536;28;20397;-62
2022/12/12 09:36:30;;;;;;;3.67;2.70;;;0.50;99.90;;;;;;5097770;28;20112;-62
2022/12/12 09:38:58;;;;;;;4.78;3.28;;;0.60;99.90;;;;;;5098925;28;20042;-65
2022/12/12 09:41:29;;;;;;;4.55;3.13;;;0.50;99.90;;;;;;5095665;28;20047;-62
2022/12/12 09:44:05;;;;;;;5.22;3.53;;;0.60;99.90;;;;;;5094952;28;20071;-64
2022/12/12 09:46:46;;;;;;;7.88;3.35;;;0.60;99.90;;;;;;5099689;28;20147;-64
2022/12/12 09:49:29;;;;;;;4.18;3.70;;;0.60;99.90;;;;;;5096041;28;20071;-66
2022/12/12 09:51:57;;;;;;;4.97;3.55;;;0.50;99.90;;;;;;5097156;28;20074;-61
2022/12/12 09:54:26;;;;;;;4.22;3.58;;;0.50;99.90;;;;;;5099562;28;20392;-61
2022/12/12 09:57:17;;;;;;;3.35;2.90;;;0.60;99.90;;;;;;5099150;28;20051;-65
2022/12/12 10:00:07;;;;;;;5.93;3.90;;;0.60;99.90;;;;;;5096223;28;20082;-62
2022/12/12 10:03:03;;;;;;;4.30;3.45;;;0.60;99.90;;;;;;5096838;28;20504;-62
2022/12/12 10:05:45;;;;;;;5.63;3.55;;;0.60;99.90;;;;;;5097955;28;20082;-61
2022/12/12 10:09:10;;;;;;;5.82;3.60;;;0.60;99.90;;;;;;5095841;28;20079;-65
2022/12/12 10:11:49;;;;;;;5.65;3.10;;;0.60;99.90;;;;;;4939387;28;20116;-65
2022/12/12 10:14:25;;;;;;;3.90;3.15;;;0.60;99.90;;;;;;5105684;28;20135;-62
2022/12/12 10:16:54;;;;;;;9.35;4.60;;;0.60;99.90;;;;;;5100222;28;20048;-63
2022/12/12 10:19:31;;;;;;;5.50;3.72;;;0.60;99.90;;;;;;5098740;28;20134;-62
2022/12/12 10:22:07;;;;;;;3.20;2.67;;;0.50;99.90;;;;;;5103726;28;20048;-63
2022/12/12 10:24:49;;;;;;;6.68;2.90;;;0.50;99.90;;;;;;5101884;28;20039;-63
2022/12/12 10:27:17;;;;;;;6.07;3.28;;;0.60;99.90;;;;;;5100515;28;20040;-63
2022/12/12 10:29:47;;;;;;;3.92;3.38;;;0.60;99.90;;;;;;5102750;28;20046;-62
2022/12/12 10:32:17;;;;;;;4.65;2.78;;;0.60;99.90;;;;;;5088297;28;20123;-67
2022/12/12 10:34:58;;;;;;;3.75;3.17;;;0.60;99.90;;;;;;5105500;28;20062;-63
2022/12/12 10:37:24;;;;;;;;;;;0.50;99.90;;;;;;5096844;28;20557;-62
2022/12/12 10:40:32;;;;;;;3.83;2.53;;;0.50;99.90;;;;;;5103050;28;19924;-64
2022/12/12 10:43:13;;;;;;;3.85;2.78;;;0.50;99.90;;;;;;5104534;28;20058;-63
2022/12/12 10:46:04;;;;;;;8.02;3.67;;;0.60;99.90;;;;;;5103237;28;20561;-66
2022/12/12 10:48:32;;;;;;;7.43;3.17;;;0.60;99.90;;;;;;5104447;28;20047;-61
2022/12/12 10:51:10;;;;;;;6.10;4.72;;;0.50;99.90;;;;;;5098307;28;20051;-64
2022/12/12 10:53:40;;;;;;;3.92;3.35;;;0.50;99.90;;;;;;5089752;28;20044;-64
2022/12/12 10:56:18;;;;;;;4.53;3.03;;;0.50;99.90;;;;;;5098532;28;20453;-64
2022/12/12 10:58:55;;;;;;;5.18;3.63;;;0.50;99.90;;;;;;5094547;28;20054;-63
2022/12/12 11:01:28;;;;;;;6.80;3.08;;;0.50;99.90;;;;;;5095356;28;20520;-62
2022/12/12 11:04:15;;;;;;;3.92;3.45;;;0.40;99.90;;;;;;5097410;28;20052;-64
2022/12/12 11:06:49;;;;;;;3.67;2.92;;;0.40;99.90;;;;;;5096975;28;20060;-62
2022/12/12 11:09:26;;;;;;;4.57;2.78;;;0.40;99.90;;;;;;5093785;28;20376;-62
2022/12/12 11:11:59;;;;;;;5.50;3.80;;;0.40;99.90;;;;;;5097309;28;20059;-63
2022/12/12 11:14:35;;;;;;;5.30;2.45;;;0.40;99.90;;;;;;5094806;28;20079;-63
2022/12/12 11:17:18;;;;;;;5.30;2.85;;;0.40;99.90;;;;;;5094001;28;20047;-63
2022/12/12 11:19:45;;;;;;;2.97;2.33;;;0.30;99.90;;;;;;5096726;28;20660;-65
2022/12/12 11:22:14;;;;;;;5.55;3.15;;;0.30;99.90;;;;;;5103208;28;20101;-63
2022/12/12 11:24:45;;;;;;;4.57;3.08;;;0.30;99.90;;;;;;5100900;28;20122;-64
2022/12/12 11:27:23;;;;;;;6.68;3.65;;;0.40;99.90;;;;;;5099966;27;20126;-64
2022/12/12 11:29:54;;;;;;;4.20;2.75;;;0.40;99.90;;;;;;5096939;28;20052;-63
2022/12/12 11:32:29;;;;;;;6.38;3.30;;;0.40;99.90;;;;;;5103334;28;20075;-63
2022/12/12 11:34:59;;;;;;;7.00;4.20;;;0.40;99.90;;;;;;5101148;28;20058;-63
2022/12/12 11:37:34;;;;;;;9.43;4.25;;;0.40;99.90;;;;;;5099916;28;20054;-64
2022/12/12 11:40:01;;;;;;;5.95;3.10;;;0.30;99.90;;;;;;5097978;28;20426;-65
2022/12/12 11:42:30;;;;;;;5.38;2.88;;;0.40;99.90;;;;;;5093409;28;20492;-66
2022/12/12 11:45:21;;;;;;;5.32;2.92;;;0.40;99.90;;;;;;5098332;28;20058;-63
2022/12/12 11:47:48;;;;;;;7.65;4.72;;;0.40;99.90;;;;;;5085884;28;20428;-64
2022/12/12 11:50:21;;;;;;;6.95;3.88;;;0.40;99.90;;;;;;5097759;28;20515;-67
2022/12/12 11:52:49;;;;;;;5.40;3.55;;;0.40;99.90;;;;;;5100670;28;20050;-66
2022/12/12 11:55:23;;;;;;;5.78;3.25;;;0.40;99.90;;;;;;5097085;28;20123;-65
2022/12/12 11:58:06;;;;;;;7.13;3.75;;;0.40;99.90;;;;;;5101585;28;20142;-62
2022/12/12 12:01:05;;;;;;;6.28;4.13;;;0.40;99.90;;;;;;5101314;28;20238;-63
2022/12/12 12:04:06;;;;;;;6.20;4.05;;;0.40;99.90;;;;;;5100050;28;20083;-62
2022/12/12 12:06:40;;;;;;;4.75;3.15;;;0.40;99.90;;;;;;5101417;28;20043;-63
2022/12/12 12:09:12;;;;;;;11.68;4.78;;;0.30;99.90;;;;;;5102287;28;20043;-66
2022/12/12 12:12:01;;;;;;;9.10;3.83;;;0.30;99.90;;;;;;5100457;28;20052;-64
2022/12/12 12:14:40;;;;;;;6.22;3.50;;;0.30;99.90;;;;;;5101059;28;20358;-63
2022/12/12 12:17:26;;;;;;;6.32;3.90;;;0.30;99.90;;;;;;5100175;28;20498;-62
2022/12/12 12:19:53;;;;;;;6.75;4.05;;;0.30;99.90;;;;;;5098355;28;20051;-64
2022/12/12 12:23:02;;;;;;;7.22;3.72;;;0.30;99.90;;;;;;5098009;28;20036;-62
2022/12/12 12:25:41;;;;;;;9.20;3.40;;;0.30;99.90;;;;;;5098477;28;20361;-64
2022/12/12 12:28:50;;;;;;;4.18;3.45;;;0.30;99.90;;;;;;5098487;28;20702;-63
2022/12/12 12:31:43;;;;;;;4.82;4.05;;;0.40;99.90;;;;;;5094679;28;20043;-64
2022/12/12 12:34:27;;;;;;;9.40;4.15;;;0.30;99.90;;;;;;5098262;28;20103;-62
2022/12/12 12:37:03;;;;;;;7.15;4.95;;;0.40;99.90;;;;;;5095324;28;20123;-62
2022/12/12 12:39:40;;;;;;;7.00;3.65;;;0.40;99.90;;;;;;5097556;28;20442;-63
2022/12/12 12:42:15;;;;;;;4.75;3.65;;;0.30;99.90;;;;;;5102078;28;20756;-62
2022/12/12 12:44:53;;;;;;;9.15;4.40;;;0.40;99.90;;;;;;5093774;28;20066;-62
2022/12/12 12:47:39;;;;;;;8.38;3.88;;;0.40;99.90;;;;;;5097025;28;20039;-63
2022/12/12 12:50:28;;;;;;;7.05;3.88;;;0.40;99.90;;;;;;5098160;27;20036;-66
2022/12/12 12:53:04;;;;;;;8.73;4.68;;;0.40;99.90;;;;;;5095424;28;20462;-65
2022/12/12 12:55:37;;;;;;;4.97;3.78;;;0.40;99.90;;;;;;5096325;28;20043;-62
2022/12/12 12:58:17;;;;;;;7.30;4.30;;;0.50;99.90;;;;;;5094917;28;20595;-66
2022/12/12 13:00:46;;;;;;;4.32;3.08;;;0.40;99.90;;;;;;5094244;28;20438;-62
2022/12/12 13:03:18;;;;;;;5.78;3.17;;;0.40;99.90;;;;;;5098360;28;20106;-65
2022/12/12 13:05:49;;;;;;;5.25;4.32;;;0.50;99.90;;;;;;5097833;28;20039;-63
2022/12/12 13:08:46;;;;;;;;;;;0.40;99.90;;;;;;5102483;28;20047;-66
2022/12/12 13:11:27;;;;;;;6.30;3.78;;;0.40;99.90;;;;;;5097088;28;19927;-66
2022/12/12 13:13:59;;;;;;;9.43;4.82;;;0.40;99.90;;;;;;5096387;28;20055;-64
2022/12/12 13:16:31;;;;;;;8.73;4.65;;;0.40;99.90;;;;;;5092325;28;20105;-63
2022/12/12 13:19:28;;;;;;;8.32;4.45;;;0.40;99.90;;;;;;5097732;27;20075;-64
2022/12/12 13:22:17;;;;;;;5.65;4.45;;;0.50;99.90;;;;;;5098313;28;20468;-64
2022/12/12 13:25:08;;;;;;;5.90;4.28;;;0.50;99.90;;;;;;5096915;28;20063;-62
2022/12/12 13:27:44;;;;;;;5.47;4.25;;;0.50;99.90;;;;;;5100709;28;20055;-65
2022/12/12 13:30:42;;;;;;;7.15;4.57;;;0.50;99.90;;;;;;5099470;28;20051;-64
2022/12/12 13:33:26;;;;;;;5.80;3.70;;;0.50;99.90;;;;;;5100913;28;20052;-62
2022/12/12 13:36:03;;;;;;;4.78;4.15;;;0.50;99.90;;;;;;5094878;28;20048;-63
2022/12/12 13:38:32;;;;;;;5.40;3.67;;;0.50;99.90;;;;;;5097381;28;20054;-63